Estación municipal de Roda de Ter (Osona, Plana de Vic)

Consulta los datos en tiempo real de la estación municipal de Roda de Ter





Hora UTC 14:15
Temperatura 15.8 ºC
Humedad 87.9 %
Pluja 0.2 mm
Velocidad viento 6.4 km/h
Dirección viento NW

Webcam

Datos diarios 2026-05-04



Hora UTC (invierno +1h; verano +2h)
Temperatura (ºC) Humedad (%) Velocidad viento (km/h) Precipitación (mm)
Hora UTC Aire Humedad Vel. Dir. Vel. Max Dir. Intent. máx 5 min.
00:05 12.5 100.0 6.6 WSW 6.6 WSW 0.0
00:10 12.5 100.0 5.1 WSW 8.1 WSW 0.0
00:15 12.6 100.0 3.3 W 4.6 W 0.0
00:20 12.6 100.0 4.2 W 5.6 W 0.0
00:25 12.6 99.8 5.1 W 7.4 WSW 0.0
00:30 12.6 99.7 4.7 W 6.7 W 0.0
00:35 12.6 99.2 5.3 WSW 8.1 WSW 0.0
00:40 12.6 99.2 4.1 WSW 5.6 WSW 0.0
00:45 12.7 99.5 1.9 WSW 3.5 WSW 0.0
00:50 12.7 99.8 2.9 WSW 5.6 WSW 0.0
00:55 12.7 99.8 2.1 WSW 3.9 WSW 0.0
01:00 12.7 99.8 0.8 WSW 2.5 WSW 0.0
01:05 12.8 99.9 0.3 WSW 2.1 WSW 0.0
01:10 12.7 99.7 0.8 WSW 2.1 WSW 0.0
01:15 12.7 99.3 0.1 WSW 1.4 WSW 0.0
01:20 12.8 99.2 0.0 WSW 1.4 WSW 0.0
01:25 12.8 99.1 0.0 WSW 1.1 WSW 0.0
01:30 12.8 99.2 1.4 WSW 3.5 WSW 0.0
01:35 12.8 99.1 1.0 WSW 2.8 WSW 0.0
01:40 12.8 98.8 0.0 WSW 1.4 WSW 0.0
01:45 12.8 98.8 0.0 NNE 0.0 WSW 0.0
01:50 12.8 99.0 0.5 W 2.8 W 0.0
01:55 12.7 99.1 0.3 N 2.1 N 0.0
02:00 12.4 99.6 0.1 N 1.8 N 0.0
02:05 12.3 100.0 0.0 NNE 0.0 N 0.0
02:10 12.4 100.0 0.3 N 1.4 N 0.0
02:15 12.4 100.0 0.0 N 1.1 N 0.0
02:20 12.4 100.0 0.1 N 1.4 N 0.0
02:25 12.3 100.0 0.0 NNE 0.0 N 0.0
02:30 12.2 100.0 0.6 N 1.8 N 0.0
02:35 12.2 100.0 0.0 NNE 0.0 N 0.0
02:40 12.2 100.0 0.0 NNE 0.0 N 0.0
02:45 12.2 100.0 0.0 NNE 0.0 N 0.0
02:50 12.1 100.0 0.0 NNE 0.0 N 0.0
02:55 12.0 100.0 0.0 NNE 0.0 N 0.0
03:00 11.8 100.0 0.1 N 1.4 N 0.0
03:05 11.8 100.0 0.6 N 1.8 N 0.0
03:10 11.5 100.0 0.0 NNE 0.0 N 0.0
03:15 11.5 100.0 0.0 NNE 0.0 N 0.0
03:20 11.6 100.0 0.0 N 1.1 N 0.0
03:25 11.8 100.0 0.0 NNE 0.0 N 0.0
03:30 11.9 100.0 2.4 N 3.5 N 0.0
03:35 12.0 100.0 5.2 ESE 6.7 SE 0.0
03:40 12.1 100.0 4.5 SE 6.0 SE 0.0
03:45 12.2 100.0 2.5 SE 4.6 SE 0.0
03:50 12.2 100.0 0.9 SE 3.5 SE 0.0
03:55 12.2 100.0 0.0 NNE 0.0 SE 0.0
04:00 12.1 100.0 3.2 NNE 6.7 NNE 0.0
04:05 12.0 100.0 3.4 NNW 5.6 N 0.0
04:10 12.0 100.0 3.3 NNW 4.6 NNW 0.0
04:15 12.1 100.0 3.0 NNW 3.9 NNW 0.0
04:20 12.2 100.0 2.2 N 3.2 NNW 0.0
04:25 12.2 100.0 0.5 N 2.5 N 0.0
04:30 12.1 100.0 0.1 N 1.8 N 0.0
04:35 12.1 100.0 1.2 N 2.8 N 0.0
04:40 12.1 100.0 0.8 N 3.5 N 0.0
04:45 12.1 100.0 2.7 N 4.9 N 0.0
04:50 12.0 100.0 0.7 N 2.5 N 0.0
04:55 12.1 100.0 0.0 NNE 0.0 N 0.0
05:00 12.1 100.0 0.0 NNE 0.0 N 0.0
05:05 12.0 100.0 0.0 NNE 0.0 N 0.0
05:10 12.0 100.0 0.3 N 1.4 N 0.0
05:15 12.1 100.0 0.8 N 1.8 N 0.0
05:20 12.1 100.0 0.4 N 1.8 N 0.0
05:25 12.2 100.0 0.0 N 1.1 N 0.0
05:30 12.2 100.0 0.0 NNE 0.0 N 0.0
05:35 12.3 100.0 1.2 N 3.2 N 0.0
05:40 12.4 100.0 3.2 N 4.2 N 0.0
05:45 12.5 100.0 3.2 N 3.9 N 0.0
05:50 12.6 100.0 1.4 N 3.5 N 0.0
05:55 12.8 100.0 1.6 N 4.6 SSE 0.0
06:00 13.0 100.0 3.1 S 4.6 SSE 0.0
06:05 13.0 100.0 4.4 S 6.7 S 0.0
06:10 13.1 100.0 4.4 S 6.0 S 0.0
06:15 13.0 99.7 3.0 SSW 4.9 SW 0.0
06:20 13.2 99.6 2.9 SSW 5.3 SSW 0.0
06:25 13.4 98.8 3.0 SSW 5.3 SSW 0.0
06:30 13.5 97.7 3.3 S 5.3 S 0.0
06:35 13.5 97.5 5.0 S 8.1 SSW 0.0
06:40 13.4 97.7 4.4 S 6.4 S 0.0
06:45 13.4 97.5 5.5 S 7.1 SSE 0.0
06:50 13.5 98.0 6.0 S 7.4 S 0.0
06:55 13.5 97.4 4.9 S 6.7 S 0.0
07:00 13.6 97.1 1.7 SSE 3.9 SSE 0.0
07:05 13.6 95.7 0.8 SSE 3.5 SSE 0.0
07:10 13.7 96.4 1.7 E 3.5 ESE 0.0
07:15 14.0 96.3 1.9 ENE 4.6 ENE 0.0
07:20 14.2 93.9 2.4 N 4.2 NNE 0.0
07:25 14.5 93.3 1.3 NNE 4.6 NE 0.0
07:30 14.8 91.6 0.2 NNW 4.2 WSW 0.0
07:35 15.1 90.9 3.8 W 7.1 WSW 0.0
07:40 15.2 90.3 3.7 WNW 7.8 NW 0.0
07:45 15.1 90.2 3.1 NW 5.6 NNW 0.0
07:50 15.0 91.0 3.2 NW 5.3 NW 0.0
07:55 15.3 88.5 1.0 NNE 4.6 NNE 0.0
08:00 15.8 86.8 4.1 NNW 9.5 NW 0.0
08:05 16.0 86.3 5.9 NNW 8.8 NNW 0.0
08:10 16.2 85.1 3.8 NNW 7.4 N 0.0
08:15 16.5 83.5 5.9 NNW 10.2 NW 0.0
08:20 16.8 80.9 2.9 NW 8.8 NW 0.0
08:25 17.1 80.2 3.4 N 6.4 N 0.0
08:30 17.2 80.8 4.3 NW 9.2 N 0.0
08:35 17.6 78.8 6.1 NW 11.6 NNW 0.0
08:40 17.5 78.1 7.3 NNW 11.3 NNW 0.0
08:45 17.3 79.6 3.7 WNW 7.8 N 0.0
08:50 17.1 78.4 4.0 NNW 7.4 N 0.0
08:55 16.9 80.7 3.8 NNW 6.7 NNW 0.0
09:00 17.7 80.9 5.2 NW 10.2 NW 0.0
09:05 18.3 77.3 4.5 W 8.5 W 0.0
09:10 18.2 76.3 3.9 NNW 10.9 NW 0.0
09:15 18.2 75.6 7.9 NW 12.7 NW 0.0
09:20 18.6 73.7 3.8 NNW 10.6 NW 0.0
09:25 18.6 72.9 4.6 NW 10.6 NNW 0.0
09:30 18.5 74.6 5.9 NW 9.5 WNW 0.0
09:35 18.3 71.9 4.6 NW 9.9 NW 0.0
09:40 18.2 73.4 3.6 W 7.8 WSW 0.0
09:45 18.6 73.0 1.9 SSW 6.7 WSW 0.0
09:50 18.8 72.7 3.6 WNW 7.8 W 0.0
09:55 18.9 70.8 3.9 SW 11.6 SSW 0.0
10:00 19.1 67.8 0.1 SW 4.2 SW 0.0
10:05 19.2 68.2 2.3 WSW 8.1 W 0.0
10:10 19.0 68.5 5.0 WNW 8.1 W 0.0
10:15 19.1 69.3 4.0 NW 8.5 NW 0.0
10:20 19.3 67.9 3.7 NW 8.5 NW 0.0
10:25 19.4 70.4 3.5 NW 6.4 W 0.0
10:30 19.3 69.5 2.4 ESE 5.6 E 0.0
10:35 19.0 69.2 3.2 NE 5.6 NE 0.0
10:40 18.9 69.3 1.8 ENE 5.3 NE 0.0
10:45 19.1 70.8 5.1 NE 10.9 ENE 0.0
10:50 19.6 67.9 4.6 ENE 7.8 NE 0.0
10:55 20.3 64.9 2.9 NE 7.4 NNE 0.0
11:00 20.6 61.4 2.0 NE 6.0 ENE 0.0
11:05 20.7 63.2 2.7 ENE 9.2 NE 0.0
11:10 20.9 62.4 5.7 NE 9.5 NNE 0.0
11:15 20.8 62.7 3.6 NNW 6.0 NW 0.0
11:20 20.9 61.8 5.4 NNW 11.6 NNW 0.0
11:25 20.8 65.6 6.2 NNW 9.2 NNW 0.0
11:30 21.0 62.5 3.2 WNW 7.4 NNW 0.0
11:35 21.2 59.5 2.1 S 5.6 SW 0.0
11:40 21.9 59.6 3.5 ENE 8.1 E 0.0
11:45 22.4 57.4 4.7 NE 12.7 NE 0.0
11:50 22.2 56.3 6.5 NE 14.8 NNE 0.0
11:55 21.6 58.1 4.4 N 9.9 N 0.0
12:00 21.7 60.5 6.3 NNW 10.6 NNW 0.0
12:05 21.9 58.5 10.6 NW 14.8 NW 0.0
12:10 21.6 60.2 7.9 WNW 12.7 WNW 0.0
12:15 21.6 58.8 4.0 NNW 9.9 N 0.0
12:20 21.7 58.3 2.1 ESE 6.0 E 0.0
12:25 22.2 57.7 6.7 ESE 11.3 SE 0.0
12:30 21.9 54.8 5.0 SE 8.8 E 0.0
12:35 21.5 57.4 6.0 S 13.4 SSE 0.0
12:40 20.7 60.1 13.6 SSE 23.3 S 0.0
12:45 20.4 62.5 15.3 SSW 30.7 SSW 0.0
12:50 20.1 64.3 13.9 SSW 24.0 SSW 0.0
12:55 20.0 64.2 18.0 SW 26.5 SW 0.0
13:00 19.9 66.6 15.8 SSW 26.1 SSW 0.0
13:05 19.6 70.1 15.1 SW 24.0 SW 0.0
13:10 19.1 72.1 14.1 WSW 22.9 WSW 0.0
13:15 18.7 72.4 16.0 WNW 23.3 NW 0.0
13:20 17.4 73.3 15.9 NW 26.1 NNW 0.0
13:25 16.7 75.8 15.6 NNW 22.9 NNW 0.0
13:30 16.6 77.9 8.5 NNW 14.5 NW 0.0
13:35 16.6 79.0 6.4 N 12.4 NNE 0.0
13:40 16.4 79.8 7.2 NNE 11.3 NNE 0.0
13:45 16.4 83.2 7.5 NE 13.8 NE 0.1
13:50 16.3 87.3 6.4 NNE 10.9 NNE 0.0
13:55 16.3 86.9 6.2 N 9.2 N 0.0
14:00 16.2 87.3 4.5 N 7.1 N 0.0
14:05 16.1 88.6 6.7 NNW 9.2 NNW 0.0
14:10 15.9 87.7 6.3 NW 8.5 WNW 0.0
14:15 15.8 87.9 6.4 NW 8.8 NW 0.1
Máxima 22.4 100.0 18.0 SW 30.7 SSW 0.1
Mínima 11.5 54.8
Total 0.2